sensor_id;sensor_type;location;lat;lon;timestamp;pressure;altitude;pressure_sealevel;temperature;humidity
6413;BME280;3239;48.714;9.472;2023-05-22T00:00:41;98104.53;;;14.67;100.00
6413;BME280;3239;48.714;9.472;2023-05-22T00:03:08;98106.75;;;14.69;100.00
6413;BME280;3239;48.714;9.472;2023-05-22T00:05:35;98107.09;;;14.80;100.00
6413;BME280;3239;48.714;9.472;2023-05-22T00:08:05;98106.91;;;14.78;100.00
6413;BME280;3239;48.714;9.472;2023-05-22T00:10:30;98094.59;;;14.64;100.00
6413;BME280;3239;48.714;9.472;2023-05-22T00:12:56;98105.09;;;14.58;100.00
6413;BME280;3239;48.714;9.472;2023-05-22T00:15:22;98100.31;;;14.59;100.00
6413;BME280;3239;48.714;9.472;2023-05-22T00:17:48;98106.38;;;14.42;100.00
6413;BME280;3239;48.714;9.472;2023-05-22T00:20:14;98099.03;;;14.45;100.00
6413;BME280;3239;48.714;9.472;2023-05-22T00:22:40;98097.56;;;14.51;100.00
6413;BME280;3239;48.714;9.472;2023-05-22T00:25:07;98100.53;;;14.38;100.00
6413;BME280;3239;48.714;9.472;2023-05-22T00:27:33;98101.41;;;14.48;100.00
6413;BME280;3239;48.714;9.472;2023-05-22T00:29:59;98099.78;;;14.45;100.00
6413;BME280;3239;48.714;9.472;2023-05-22T00:32:25;98098.66;;;14.48;100.00
6413;BME280;3239;48.714;9.472;2023-05-22T00:34:51;98097.94;;;14.40;100.00
6413;BME280;3239;48.714;9.472;2023-05-22T00:37:20;98095.94;;;14.41;100.00
6413;BME280;3239;48.714;9.472;2023-05-22T00:39:46;98093.72;;;14.32;100.00
6413;BME280;3239;48.714;9.472;2023-05-22T00:42:12;98099.03;;;14.22;100.00
6413;BME280;3239;48.714;9.472;2023-05-22T00:44:37;98097.94;;;14.25;100.00
6413;BME280;3239;48.714;9.472;2023-05-22T00:47:03;98098.69;;;14.26;100.00
6413;BME280;3239;48.714;9.472;2023-05-22T00:49:30;98096.97;;;14.15;100.00
6413;BME280;3239;48.714;9.472;2023-05-22T00:51:56;98105.78;;;14.06;100.00
6413;BME280;3239;48.714;9.472;2023-05-22T00:54:22;98104.84;;;14.04;100.00
6413;BME280;3239;48.714;9.472;2023-05-22T00:56:48;98112.56;;;14.05;100.00
6413;BME280;3239;48.714;9.472;2023-05-22T00:59:15;98115.69;;;14.09;100.00
6413;BME280;3239;48.714;9.472;2023-05-22T01:01:41;98107.03;;;13.90;100.00
6413;BME280;3239;48.714;9.472;2023-05-22T01:04:11;98120.09;;;13.97;100.00
6413;BME280;3239;48.714;9.472;2023-05-22T01:06:37;98116.06;;;13.98;100.00
6413;BME280;3239;48.714;9.472;2023-05-22T01:09:03;98117.72;;;13.94;100.00
6413;BME280;3239;48.714;9.472;2023-05-22T01:11:58;98114.56;;;13.90;100.00
6413;BME280;3239;48.714;9.472;2023-05-22T01:17:49;98125.94;;;13.86;100.00
6413;BME280;3239;48.714;9.472;2023-05-22T01:20:36;98122.44;;;13.86;100.00
6413;BME280;3239;48.714;9.472;2023-05-22T01:23:23;98128.88;;;13.88;100.00
6413;BME280;3239;48.714;9.472;2023-05-22T01:26:30;98128.13;;;13.80;100.00
6413;BME280;3239;48.714;9.472;2023-05-22T01:29:27;98129.38;;;13.64;100.00
6413;BME280;3239;48.714;9.472;2023-05-22T01:31:56;98129.91;;;13.63;100.00
6413;BME280;3239;48.714;9.472;2023-05-22T01:34:24;98134.28;;;13.58;100.00
6413;BME280;3239;48.714;9.472;2023-05-22T01:36:51;98135.03;;;13.59;100.00
6413;BME280;3239;48.714;9.472;2023-05-22T01:39:18;98140.75;;;13.68;100.00
6413;BME280;3239;48.714;9.472;2023-05-22T01:41:44;98132.09;;;13.57;100.00
6413;BME280;3239;48.714;9.472;2023-05-22T01:44:10;98138.28;;;13.50;100.00
6413;BME280;3239;48.714;9.472;2023-05-22T01:46:36;98147.09;;;13.48;100.00
6413;BME280;3239;48.714;9.472;2023-05-22T01:49:01;98150.44;;;13.54;100.00
6413;BME280;3239;48.714;9.472;2023-05-22T01:51:54;98155.59;;;13.58;100.00
6413;BME280;3239;48.714;9.472;2023-05-22T01:54:29;98147.31;;;13.58;100.00
6413;BME280;3239;48.714;9.472;2023-05-22T01:59:51;98144.69;;;13.45;100.00
6413;BME280;3239;48.714;9.472;2023-05-22T02:02:20;98147.09;;;13.48;100.00
6413;BME280;3239;48.714;9.472;2023-05-22T02:04:55;98147.84;;;13.49;100.00
6413;BME280;3239;48.714;9.472;2023-05-22T02:07:23;98142.50;;;13.43;100.00
6413;BME280;3239;48.714;9.472;2023-05-22T02:09:50;98150.38;;;13.39;100.00
6413;BME280;3239;48.714;9.472;2023-05-22T02:12:17;98152.72;;;13.35;100.00
6413;BME280;3239;48.714;9.472;2023-05-22T02:14:43;98151.94;;;13.27;100.00
6413;BME280;3239;48.714;9.472;2023-05-22T02:17:09;98154.16;;;13.29;100.00
6413;BME280;3239;48.714;9.472;2023-05-22T02:19:35;98152.09;;;13.22;100.00
6413;BME280;3239;48.714;9.472;2023-05-22T02:22:02;98148.84;;;13.31;100.00
6413;BME280;3239;48.714;9.472;2023-05-22T02:24:30;98152.63;;;13.20;100.00
6413;BME280;3239;48.714;9.472;2023-05-22T02:26:56;98149.34;;;13.22;100.00
6413;BME280;3239;48.714;9.472;2023-05-22T02:29:22;98148.25;;;13.17;100.00
6413;BME280;3239;48.714;9.472;2023-05-22T02:31:48;98148.81;;;13.23;100.00
6413;BME280;3239;48.714;9.472;2023-05-22T02:34:14;98146.06;;;13.23;100.00
6413;BME280;3239;48.714;9.472;2023-05-22T02:36:40;98141.06;;;13.14;100.00
6413;BME280;3239;48.714;9.472;2023-05-22T02:39:06;98144.16;;;13.11;100.00
6413;BME280;3239;48.714;9.472;2023-05-22T02:41:33;98146.69;;;13.01;100.00
6413;BME280;3239;48.714;9.472;2023-05-22T02:43:58;98157.31;;;13.05;100.00
6413;BME280;3239;48.714;9.472;2023-05-22T02:46:24;98158.44;;;13.09;100.00
6413;BME280;3239;48.714;9.472;2023-05-22T02:48:50;98159.53;;;13.06;100.00
6413;BME280;3239;48.714;9.472;2023-05-22T02:51:15;98161.53;;;13.06;100.00
6413;BME280;3239;48.714;9.472;2023-05-22T02:53:41;98163.41;;;13.11;100.00
6413;BME280;3239;48.714;9.472;2023-05-22T02:56:08;98160.06;;;13.05;100.00
6413;BME280;3239;48.714;9.472;2023-05-22T02:58:37;98157.31;;;13.05;100.00
6413;BME280;3239;48.714;9.472;2023-05-22T03:01:03;98157.81;;;12.96;100.00
6413;BME280;3239;48.714;9.472;2023-05-22T03:03:31;98167.09;;;12.93;100.00
6413;BME280;3239;48.714;9.472;2023-05-22T03:06:01;98166.84;;;13.04;100.00
6413;BME280;3239;48.714;9.472;2023-05-22T03:08:31;98168.88;;;13.03;100.00
6413;BME280;3239;48.714;9.472;2023-05-22T03:10:59;98160.22;;;12.99;100.00
6413;BME280;3239;48.714;9.472;2023-05-22T03:13:25;98163.81;;;12.94;100.00
6413;BME280;3239;48.714;9.472;2023-05-22T03:15:50;98166.50;;;12.87;100.00
6413;BME280;3239;48.714;9.472;2023-05-22T03:18:16;98172.22;;;12.89;100.00
6413;BME280;3239;48.714;9.472;2023-05-22T03:20:42;98176.97;;;12.88;100.00
6413;BME280;3239;48.714;9.472;2023-05-22T03:23:10;98169.81;;;12.85;100.00
6413;BME280;3239;48.714;9.472;2023-05-22T03:25:37;98176.44;;;12.90;100.00
6413;BME280;3239;48.714;9.472;2023-05-22T03:28:03;98175.56;;;12.95;100.00
6413;BME280;3239;48.714;9.472;2023-05-22T03:30:29;98184.16;;;12.91;100.00
6413;BME280;3239;48.714;9.472;2023-05-22T03:32:55;98193.56;;;12.96;100.00
6413;BME280;3239;48.714;9.472;2023-05-22T03:35:21;98190.13;;;13.03;100.00
6413;BME280;3239;48.714;9.472;2023-05-22T03:37:49;98194.81;;;12.95;100.00
6413;BME280;3239;48.714;9.472;2023-05-22T03:40:14;98200.84;;;12.93;100.00
6413;BME280;3239;48.714;9.472;2023-05-22T03:42:40;98201.59;;;12.94;100.00
6413;BME280;3239;48.714;9.472;2023-05-22T03:45:06;98202.94;;;13.00;100.00
6413;BME280;3239;48.714;9.472;2023-05-22T03:47:32;98203.75;;;13.08;100.00
6413;BME280;3239;48.714;9.472;2023-05-22T03:49:58;98197.78;;;12.97;100.00
6413;BME280;3239;48.714;9.472;2023-05-22T03:52:24;98203.06;;;12.95;100.00
6413;BME280;3239;48.714;9.472;2023-05-22T03:54:50;98207.22;;;12.88;100.00
6413;BME280;3239;48.714;9.472;2023-05-22T03:59:44;98206.53;;;12.95;100.00
6413;BME280;3239;48.714;9.472;2023-05-22T04:02:11;98217.09;;;13.04;100.00
6413;BME280;3239;48.714;9.472;2023-05-22T04:04:37;98214.50;;;12.99;100.00
6413;BME280;3239;48.714;9.472;2023-05-22T04:07:07;98223.34;;;13.05;100.00
6413;BME280;3239;48.714;9.472;2023-05-22T04:09:34;98215.97;;;13.00;100.00
6413;BME280;3239;48.714;9.472;2023-05-22T04:12:01;98224.81;;;13.06;100.00
6413;BME280;3239;48.714;9.472;2023-05-22T04:14:27;98220.47;;;13.18;100.00
6413;BME280;3239;48.714;9.472;2023-05-22T04:16:53;98224.69;;;13.19;100.00
6413;BME280;3239;48.714;9.472;2023-05-22T04:19:19;98231.34;;;13.23;100.00
6413;BME280;3239;48.714;9.472;2023-05-22T04:21:45;98232.91;;;13.11;100.00
6413;BME280;3239;48.714;9.472;2023-05-22T04:24:12;98235.38;;;13.22;100.00
6413;BME280;3239;48.714;9.472;2023-05-22T04:26:38;98229.25;;;13.37;100.00
6413;BME280;3239;48.714;9.472;2023-05-22T04:29:03;98235.50;;;13.45;100.00
6413;BME280;3239;48.714;9.472;2023-05-22T04:31:35;98232.63;;;13.50;100.00
6413;BME280;3239;48.714;9.472;2023-05-22T04:34:01;98234.53;;;13.63;100.00
6413;BME280;3239;48.714;9.472;2023-05-22T04:36:28;98230.13;;;13.67;100.00
6413;BME280;3239;48.714;9.472;2023-05-22T04:38:55;98227.59;;;13.77;100.00
6413;BME280;3239;48.714;9.472;2023-05-22T04:41:21;98219.38;;;13.84;100.00
6413;BME280;3239;48.714;9.472;2023-05-22T04:43:51;98209.31;;;13.94;100.00
6413;BME280;3239;48.714;9.472;2023-05-22T04:46:17;98205.31;;;14.03;100.00
6413;BME280;3239;48.714;9.472;2023-05-22T04:48:43;98202.09;;;13.76;100.00
6413;BME280;3239;48.714;9.472;2023-05-22T04:51:10;98203.34;;;13.68;100.00
6413;BME280;3239;48.714;9.472;2023-05-22T04:53:36;98210.81;;;13.60;100.00
6413;BME280;3239;48.714;9.472;2023-05-22T04:56:03;98212.09;;;13.59;100.00
6413;BME280;3239;48.714;9.472;2023-05-22T04:58:29;98224.13;;;13.76;100.00
6413;BME280;3239;48.714;9.472;2023-05-22T05:00:55;98217.94;;;13.91;100.00
6413;BME280;3239;48.714;9.472;2023-05-22T05:03:23;98221.84;;;14.03;100.00
6413;BME280;3239;48.714;9.472;2023-05-22T05:05:50;98211.41;;;14.16;100.00
6413;BME280;3239;48.714;9.472;2023-05-22T05:08:16;98216.59;;;14.27;100.00
6413;BME280;3239;48.714;9.472;2023-05-22T05:10:42;98201.59;;;14.36;100.00
6413;BME280;3239;48.714;9.472;2023-05-22T05:13:08;98193.66;;;14.40;100.00
6413;BME280;3239;48.714;9.472;2023-05-22T05:15:34;98182.09;;;14.49;100.00
6413;BME280;3239;48.714;9.472;2023-05-22T05:17:59;98177.69;;;14.53;100.00
6413;BME280;3239;48.714;9.472;2023-05-22T05:20:25;98170.34;;;14.48;100.00
6413;BME280;3239;48.714;9.472;2023-05-22T05:22:52;98171.59;;;14.25;100.00
6413;BME280;3239;48.714;9.472;2023-05-22T05:25:17;98181.34;;;14.26;100.00
6413;BME280;3239;48.714;9.472;2023-05-22T05:27:43;98186.13;;;14.33;100.00
6413;BME280;3239;48.714;9.472;2023-05-22T05:30:09;98193.13;;;14.49;100.00
6413;BME280;3239;48.714;9.472;2023-05-22T05:32:37;98188.38;;;14.57;100.00
6413;BME280;3239;48.714;9.472;2023-05-22T05:35:03;98184.13;;;14.48;100.00
6413;BME280;3239;48.714;9.472;2023-05-22T05:37:29;98191.47;;;14.46;100.00
6413;BME280;3239;48.714;9.472;2023-05-22T05:39:54;98191.13;;;14.72;100.00
6413;BME280;3239;48.714;9.472;2023-05-22T05:42:20;98195.53;;;14.75;100.00
6413;BME280;3239;48.714;9.472;2023-05-22T05:44:46;98197.56;;;14.97;100.00
6413;BME280;3239;48.714;9.472;2023-05-22T05:47:11;98194.63;;;15.02;100.00
6413;BME280;3239;48.714;9.472;2023-05-22T05:49:38;98191.09;;;15.24;100.00
6413;BME280;3239;48.714;9.472;2023-05-22T05:52:04;98191.00;;;15.62;100.00
6413;BME280;3239;48.714;9.472;2023-05-22T05:54:30;98176.25;;;15.67;100.00
6413;BME280;3239;48.714;9.472;2023-05-22T05:56:55;98172.16;;;15.83;100.00
6413;BME280;3239;48.714;9.472;2023-05-22T05:59:21;98156.06;;;15.96;100.00
6413;BME280;3239;48.714;9.472;2023-05-22T06:01:47;98140.13;;;16.12;100.00
6413;BME280;3239;48.714;9.472;2023-05-22T06:04:14;98132.16;;;16.23;100.00
6413;BME280;3239;48.714;9.472;2023-05-22T06:06:39;98111.47;;;16.73;100.00
6413;BME280;3239;48.714;9.472;2023-05-22T06:09:07;98085.59;;;16.61;100.00
6413;BME280;3239;48.714;9.472;2023-05-22T06:11:34;98064.78;;;16.77;100.00
6413;BME280;3239;48.714;9.472;2023-05-22T06:14:01;98050.38;;;17.13;100.00
6413;BME280;3239;48.714;9.472;2023-05-22T06:16:28;98039.44;;;17.32;100.00
6413;BME280;3239;48.714;9.472;2023-05-22T06:18:55;98029.78;;;17.40;100.00
6413;BME280;3239;48.714;9.472;2023-05-22T06:21:22;98032.91;;;17.54;100.00
6413;BME280;3239;48.714;9.472;2023-05-22T06:23:49;98029.47;;;17.99;100.00
6413;BME280;3239;48.714;9.472;2023-05-22T06:26:15;98010.25;;;18.46;100.00
6413;BME280;3239;48.714;9.472;2023-05-22T06:28:42;97990.56;;;18.71;100.00
6413;BME280;3239;48.714;9.472;2023-05-22T06:31:08;97979.00;;;18.74;100.00
6413;BME280;3239;48.714;9.472;2023-05-22T06:33:37;97960.00;;;18.52;100.00
6413;BME280;3239;48.714;9.472;2023-05-22T06:36:05;97960.31;;;18.56;100.00
6413;BME280;3239;48.714;9.472;2023-05-22T06:38:33;97957.97;;;18.90;100.00
6413;BME280;3239;48.714;9.472;2023-05-22T06:40:59;97954.19;;;18.86;100.00
6413;BME280;3239;48.714;9.472;2023-05-22T06:43:24;97961.16;;;18.96;100.00
6413;BME280;3239;48.714;9.472;2023-05-22T06:45:50;97959.13;;;19.06;100.00
6413;BME280;3239;48.714;9.472;2023-05-22T06:48:16;97951.69;;;18.71;100.00
6413;BME280;3239;48.714;9.472;2023-05-22T06:50:42;97954.78;;;18.75;100.00
6413;BME280;3239;48.714;9.472;2023-05-22T06:53:07;97969.38;;;18.94;100.00
6413;BME280;3239;48.714;9.472;2023-05-22T06:55:33;97959.69;;;19.14;100.00
6413;BME280;3239;48.714;9.472;2023-05-22T06:57:59;97960.41;;;19.15;100.00
6413;BME280;3239;48.714;9.472;2023-05-22T07:00:25;97937.28;;;19.81;100.00
6413;BME280;3239;48.714;9.472;2023-05-22T07:02:51;97930.06;;;19.57;100.00
6413;BME280;3239;48.714;9.472;2023-05-22T07:05:17;97929.28;;;19.26;100.00
6413;BME280;3239;48.714;9.472;2023-05-22T07:07:43;97949.19;;;18.94;100.00
6413;BME280;3239;48.714;9.472;2023-05-22T07:10:09;97946.31;;;19.51;100.00
6413;BME280;3239;48.714;9.472;2023-05-22T07:12:35;97952.22;;;19.76;100.00
6413;BME280;3239;48.714;9.472;2023-05-22T07:15:02;97943.81;;;20.25;100.00
6413;BME280;3239;48.714;9.472;2023-05-22T07:17:28;97938.94;;;20.26;100.00
6413;BME280;3239;48.714;9.472;2023-05-22T07:19:53;97934.53;;;20.32;100.00
6413;BME280;3239;48.714;9.472;2023-05-22T07:22:19;97939.41;;;20.64;100.00
6413;BME280;3239;48.714;9.472;2023-05-22T07:24:45;97920.88;;;20.90;100.00
6413;BME280;3239;48.714;9.472;2023-05-22T07:27:12;97925.56;;;21.75;100.00
6413;BME280;3239;48.714;9.472;2023-05-22T07:29:38;97905.78;;;21.83;100.00
6413;BME280;3239;48.714;9.472;2023-05-22T07:32:04;97912.91;;;21.63;100.00
6413;BME280;3239;48.714;9.472;2023-05-22T07:34:29;97907.31;;;21.28;100.00
6413;BME280;3239;48.714;9.472;2023-05-22T07:37:11;97898.81;;;21.26;100.00
6413;BME280;3239;48.714;9.472;2023-05-22T07:39:38;97902.84;;;21.35;100.00
6413;BME280;3239;48.714;9.472;2023-05-22T07:42:04;97907.91;;;21.27;100.00
6413;BME280;3239;48.714;9.472;2023-05-22T07:44:30;97908.53;;;21.25;100.00
6413;BME280;3239;48.714;9.472;2023-05-22T07:46:56;97899.50;;;21.04;100.00
6413;BME280;3239;48.714;9.472;2023-05-22T07:49:23;97906.59;;;21.39;100.00
6413;BME280;3239;48.714;9.472;2023-05-22T07:51:49;97896.66;;;21.59;100.00
6413;BME280;3239;48.714;9.472;2023-05-22T07:54:15;97898.16;;;21.72;100.00
6413;BME280;3239;48.714;9.472;2023-05-22T07:56:41;97890.59;;;22.20;100.00
6413;BME280;3239;48.714;9.472;2023-05-22T07:59:08;97892.53;;;22.18;100.00
6413;BME280;3239;48.714;9.472;2023-05-22T08:01:37;97894.81;;;22.21;100.00
6413;BME280;3239;48.714;9.472;2023-05-22T08:04:04;97894.03;;;21.96;100.00
6413;BME280;3239;48.714;9.472;2023-05-22T08:06:30;97902.59;;;22.11;100.00
6413;BME280;3239;48.714;9.472;2023-05-22T08:08:56;97900.06;;;22.04;100.00
6413;BME280;3239;48.714;9.472;2023-05-22T08:11:21;97902.13;;;22.03;100.00
6413;BME280;3239;48.714;9.472;2023-05-22T08:13:47;97899.44;;;23.15;100.00
6413;BME280;3239;48.714;9.472;2023-05-22T08:16:13;97891.31;;;23.19;100.00
6413;BME280;3239;48.714;9.472;2023-05-22T08:18:39;97876.47;;;23.82;100.00
6413;BME280;3239;48.714;9.472;2023-05-22T08:21:05;97872.69;;;23.37;100.00
6413;BME280;3239;48.714;9.472;2023-05-22T08:23:31;97873.16;;;23.58;100.00
6413;BME280;3239;48.714;9.472;2023-05-22T08:25:57;97880.56;;;23.40;100.00
6413;BME280;3239;48.714;9.472;2023-05-22T08:28:23;97878.91;;;23.35;100.00
6413;BME280;3239;48.714;9.472;2023-05-22T08:30:49;97874.47;;;23.44;100.00
6413;BME280;3239;48.714;9.472;2023-05-22T08:33:15;97865.59;;;23.74;100.00
6413;BME280;3239;48.714;9.472;2023-05-22T08:35:41;97862.72;;;23.99;100.00
6413;BME280;3239;48.714;9.472;2023-05-22T08:38:06;97864.56;;;23.95;100.00
6413;BME280;3239;48.714;9.472;2023-05-22T08:40:37;97863.63;;;24.04;100.00
6413;BME280;3239;48.714;9.472;2023-05-22T08:43:06;97860.00;;;23.88;100.00
6413;BME280;3239;48.714;9.472;2023-05-22T08:45:33;97866.75;;;24.52;100.00
6413;BME280;3239;48.714;9.472;2023-05-22T08:48:03;97857.88;;;25.00;100.00
6413;BME280;3239;48.714;9.472;2023-05-22T08:50:30;97848.84;;;24.73;100.00
6413;BME280;3239;48.714;9.472;2023-05-22T08:52:59;97840.72;;;25.54;100.00
6413;BME280;3239;48.714;9.472;2023-05-22T08:55:27;97838.22;;;25.93;100.00
6413;BME280;3239;48.714;9.472;2023-05-22T08:57:55;97839.41;;;24.95;100.00
6413;BME280;3239;48.714;9.472;2023-05-22T09:00:21;97848.88;;;25.48;100.00
6413;BME280;3239;48.714;9.472;2023-05-22T09:02:48;97835.94;;;25.26;100.00
6413;BME280;3239;48.714;9.472;2023-05-22T09:05:15;97835.63;;;26.15;100.00
6413;BME280;3239;48.714;9.472;2023-05-22T09:07:41;97831.53;;;26.18;100.00
6413;BME280;3239;48.714;9.472;2023-05-22T09:10:08;97825.47;;;26.41;100.00
6413;BME280;3239;48.714;9.472;2023-05-22T09:12:33;97823.41;;;26.76;100.00
6413;BME280;3239;48.714;9.472;2023-05-22T09:15:10;97834.56;;;26.92;100.00
6413;BME280;3239;48.714;9.472;2023-05-22T09:17:39;97820.25;;;26.33;100.00
6413;BME280;3239;48.714;9.472;2023-05-22T09:20:06;97824.44;;;26.32;100.00
6413;BME280;3239;48.714;9.472;2023-05-22T09:22:36;97828.97;;;26.57;100.00
6413;BME280;3239;48.714;9.472;2023-05-22T09:25:03;97825.38;;;27.09;100.00
6413;BME280;3239;48.714;9.472;2023-05-22T09:27:29;97821.13;;;27.64;100.00
6413;BME280;3239;48.714;9.472;2023-05-22T09:29:56;97826.63;;;26.69;100.00
6413;BME280;3239;48.714;9.472;2023-05-22T09:32:22;97822.44;;;26.70;100.00
6413;BME280;3239;48.714;9.472;2023-05-22T09:34:49;97824.63;;;26.71;100.00
6413;BME280;3239;48.714;9.472;2023-05-22T09:37:16;97819.44;;;27.01;100.00
6413;BME280;3239;48.714;9.472;2023-05-22T09:39:46;97822.34;;;26.85;100.00
6413;BME280;3239;48.714;9.472;2023-05-22T09:42:14;97815.16;;;27.17;100.00
6413;BME280;3239;48.714;9.472;2023-05-22T09:44:41;97820.66;;;26.96;100.00
6413;BME280;3239;48.714;9.472;2023-05-22T09:47:09;97818.06;;;27.39;100.00
6413;BME280;3239;48.714;9.472;2023-05-22T09:49:40;97818.53;;;26.59;100.00
6413;BME280;3239;48.714;9.472;2023-05-22T09:52:08;97806.59;;;26.78;100.00
6413;BME280;3239;48.714;9.472;2023-05-22T09:54:34;97809.72;;;27.60;100.00
6413;BME280;3239;48.714;9.472;2023-05-22T09:57:05;97804.06;;;26.84;100.00
6413;BME280;3239;48.714;9.472;2023-05-22T09:59:34;97802.03;;;26.52;100.00
6413;BME280;3239;48.714;9.472;2023-05-22T10:02:05;97804.72;;;27.02;100.00
6413;BME280;3239;48.714;9.472;2023-05-22T10:04:32;97802.88;;;28.28;100.00
6413;BME280;3239;48.714;9.472;2023-05-22T10:07:01;97802.84;;;27.85;100.00
6413;BME280;3239;48.714;9.472;2023-05-22T10:09:30;97794.50;;;28.30;100.00
6413;BME280;3239;48.714;9.472;2023-05-22T10:12:04;97794.34;;;28.45;100.00
6413;BME280;3239;48.714;9.472;2023-05-22T10:14:33;97800.97;;;29.48;100.00
6413;BME280;3239;48.714;9.472;2023-05-22T10:17:00;97792.25;;;29.40;100.00
6413;BME280;3239;48.714;9.472;2023-05-22T10:19:29;97795.19;;;29.18;100.00
6413;BME280;3239;48.714;9.472;2023-05-22T10:21:57;97799.00;;;27.96;100.00
6413;BME280;3239;48.714;9.472;2023-05-22T10:24:24;97790.63;;;28.62;100.00
6413;BME280;3239;48.714;9.472;2023-05-22T10:26:52;97785.06;;;28.64;100.00
6413;BME280;3239;48.714;9.472;2023-05-22T10:29:44;97792.47;;;28.54;100.00
6413;BME280;3239;48.714;9.472;2023-05-22T10:32:32;97788.88;;;29.69;100.00
6413;BME280;3239;48.714;9.472;2023-05-22T10:41:09;97779.91;;;28.57;100.00
6413;BME280;3239;48.714;9.472;2023-05-22T10:43:42;97774.19;;;28.55;100.00
6413;BME280;3239;48.714;9.472;2023-05-22T10:46:10;97770.63;;;28.99;100.00
6413;BME280;3239;48.714;9.472;2023-05-22T10:48:44;97751.28;;;28.66;100.00
6413;BME280;3239;48.714;9.472;2023-05-22T10:51:18;97764.78;;;29.93;100.00
6413;BME280;3239;48.714;9.472;2023-05-22T10:53:48;97758.50;;;29.44;100.00
6413;BME280;3239;48.714;9.472;2023-05-22T10:56:17;97758.06;;;29.79;100.00
6413;BME280;3239;48.714;9.472;2023-05-22T10:58:58;97762.38;;;29.31;100.00
6413;BME280;3239;48.714;9.472;2023-05-22T11:01:27;97757.22;;;28.31;100.00
6413;BME280;3239;48.714;9.472;2023-05-22T11:04:08;97763.00;;;27.73;100.00
6413;BME280;3239;48.714;9.472;2023-05-22T11:06:48;97752.16;;;27.07;100.00
6413;BME280;3239;48.714;9.472;2023-05-22T11:09:27;97745.16;;;26.88;100.00
6413;BME280;3239;48.714;9.472;2023-05-22T11:12:25;97754.66;;;27.36;100.00
6413;BME280;3239;48.714;9.472;2023-05-22T11:15:06;97756.22;;;27.80;100.00
6413;BME280;3239;48.714;9.472;2023-05-22T11:22:39;97742.88;;;27.61;100.00
6413;BME280;3239;48.714;9.472;2023-05-22T11:25:09;97740.06;;;27.41;100.00
6413;BME280;3239;48.714;9.472;2023-05-22T11:27:36;97736.84;;;27.90;100.00
6413;BME280;3239;48.714;9.472;2023-05-22T11:30:04;97738.94;;;27.89;100.00
6413;BME280;3239;48.714;9.472;2023-05-22T11:32:31;97723.94;;;28.26;100.00
6413;BME280;3239;48.714;9.472;2023-05-22T11:34:57;97726.69;;;27.81;100.00
6413;BME280;3239;48.714;9.472;2023-05-22T11:37:22;97721.97;;;28.52;100.00
6413;BME280;3239;48.714;9.472;2023-05-22T11:40:03;97724.50;;;28.65;100.00
6413;BME280;3239;48.714;9.472;2023-05-22T11:42:29;97725.13;;;28.40;100.00
6413;BME280;3239;48.714;9.472;2023-05-22T11:44:55;97710.63;;;28.50;100.00
6413;BME280;3239;48.714;9.472;2023-05-22T11:47:21;97708.78;;;28.82;100.00
6413;BME280;3239;48.714;9.472;2023-05-22T11:49:47;97707.91;;;29.01;100.00
6413;BME280;3239;48.714;9.472;2023-05-22T11:52:15;97695.22;;;29.00;100.00
6413;BME280;3239;48.714;9.472;2023-05-22T11:54:45;97701.50;;;28.98;100.00
6413;BME280;3239;48.714;9.472;2023-05-22T11:57:13;97690.69;;;28.91;100.00
6413;BME280;3239;48.714;9.472;2023-05-22T11:59:39;97700.03;;;28.72;100.00
6413;BME280;3239;48.714;9.472;2023-05-22T12:02:06;97689.53;;;28.74;100.00
6413;BME280;3239;48.714;9.472;2023-05-22T12:04:32;97686.09;;;28.78;100.00
6413;BME280;3239;48.714;9.472;2023-05-22T12:06:58;97680.38;;;28.99;100.00
6413;BME280;3239;48.714;9.472;2023-05-22T12:09:26;97682.84;;;28.64;97.14
6413;BME280;3239;48.714;9.472;2023-05-22T12:11:54;97683.69;;;28.68;97.45
6413;BME280;3239;48.714;9.472;2023-05-22T12:14:28;97681.06;;;28.98;98.76
6413;BME280;3239;48.714;9.472;2023-05-22T12:16:57;97684.81;;;29.32;100.00
6413;BME280;3239;48.714;9.472;2023-05-22T12:19:25;97689.06;;;29.33;86.89
6413;BME280;3239;48.714;9.472;2023-05-22T12:21:53;97682.38;;;28.48;85.46
6413;BME280;3239;48.714;9.472;2023-05-22T12:24:18;97690.88;;;28.50;83.33
6413;BME280;3239;48.714;9.472;2023-05-22T12:26:52;97690.88;;;28.73;100.00
6413;BME280;3239;48.714;9.472;2023-05-22T12:29:21;97689.22;;;29.39;100.00
6413;BME280;3239;48.714;9.472;2023-05-22T12:31:47;97688.69;;;29.19;88.41
6413;BME280;3239;48.714;9.472;2023-05-22T12:34:14;97687.69;;;29.59;98.68
6413;BME280;3239;48.714;9.472;2023-05-22T12:36:43;97685.19;;;29.73;97.96
6413;BME280;3239;48.714;9.472;2023-05-22T12:39:17;97679.47;;;29.69;89.18
6413;BME280;3239;48.714;9.472;2023-05-22T12:41:44;97688.81;;;29.50;96.08
6413;BME280;3239;48.714;9.472;2023-05-22T12:44:11;97679.44;;;30.26;100.00
6413;BME280;3239;48.714;9.472;2023-05-22T12:46:37;97675.69;;;29.88;79.56
6413;BME280;3239;48.714;9.472;2023-05-22T12:49:03;97675.88;;;29.41;88.62
6413;BME280;3239;48.714;9.472;2023-05-22T12:51:30;97678.53;;;29.35;83.34
6413;BME280;3239;48.714;9.472;2023-05-22T12:54:00;97684.41;;;29.43;92.83
6413;BME280;3239;48.714;9.472;2023-05-22T12:56:28;97686.19;;;29.56;79.97
6413;BME280;3239;48.714;9.472;2023-05-22T12:58:55;97678.75;;;30.28;81.57
6413;BME280;3239;48.714;9.472;2023-05-22T13:01:21;97674.41;;;29.66;72.25
6413;BME280;3239;48.714;9.472;2023-05-22T13:03:51;97676.22;;;29.53;79.26
6413;BME280;3239;48.714;9.472;2023-05-22T13:06:18;97682.09;;;29.36;77.95
6413;BME280;3239;48.714;9.472;2023-05-22T13:08:44;97676.19;;;29.26;88.70
6413;BME280;3239;48.714;9.472;2023-05-22T13:11:15;97674.00;;;29.77;84.97
6413;BME280;3239;48.714;9.472;2023-05-22T13:13:51;97668.22;;;30.30;92.14
6413;BME280;3239;48.714;9.472;2023-05-22T13:16:20;97663.69;;;30.49;76.58
6413;BME280;3239;48.714;9.472;2023-05-22T13:18:46;97658.84;;;30.87;77.77
6413;BME280;3239;48.714;9.472;2023-05-22T13:21:12;97637.91;;;30.33;68.30
6413;BME280;3239;48.714;9.472;2023-05-22T13:23:38;97651.34;;;29.48;76.09
6413;BME280;3239;48.714;9.472;2023-05-22T13:26:03;97649.97;;;29.49;87.38
6413;BME280;3239;48.714;9.472;2023-05-22T13:28:29;97647.31;;;30.12;88.75
6413;BME280;3239;48.714;9.472;2023-05-22T13:30:55;97646.94;;;30.59;86.59
6413;BME280;3239;48.714;9.472;2023-05-22T13:33:21;97649.47;;;30.13;75.75
6413;BME280;3239;48.714;9.472;2023-05-22T13:35:47;97649.78;;;29.98;70.40